Skip Navigation LinksHome page > Weather > Current weather Skip Navigation Links

Current Weather

Eureka, Nunavut

For information only: do not use for flight planning or navigation.
Latest weather
Observation time Tuesday, September 30, 2014 1:00 PM CDT
Local time Tuesday, September 30, 2014 2:52 PM CDT
Flight conditions Visual Meteorological Conditions
Winds
Wind direction North-Northwest (340°)
Wind speed 22 mph
Visibility 15 mi.
Sky condition
Ceiling unlimited
Cloud layer few clouds 2,000 ft.
Cloud layer few clouds 20,000 ft.
Temperature 16°F
Dewpoint 9°F
Altimeter 29.94 in.Hg
Derived measurements
Relative humidity 73%
Wind chill -2°F
Density altitude -2944 ft.
Sea-level pressure 29.95 in.Hg
Remarks
Visibility west.
METAR CWEU 301800Z 34019KT 15SM FEW020 FEW200 M09/M13 A2994 RMK SC1CI0 VIS LWR W SLP141

Settings

Location code

InnerDrive.Weather 4.0.5372.0 Release CLR 4.0.30319.34014
Copyright ©2014 Inner Drive Technology. All rights reserved. Portions Copyright ©1986-2014 David Braverman.

Find weather

Site navigation


Skip Navigation Links

Place info

Page info

PayPal - The safer, easier way to pay online!

Return home.

Copyright ©2014 Inner Drive Technology. Purveyors of fine, hand-crafted computer software. Page printed 2014-09-30T19:52:09 UTC.